createdAt,value
2023-08-04T00:00:31.650Z,565.2
2023-08-04T00:01:33.643Z,565.2
2023-08-04T00:02:37.971Z,565.1
2023-08-04T00:03:39.904Z,564.9
2023-08-04T00:04:41.658Z,565.3
2023-08-04T00:05:43.394Z,565.3
2023-08-04T00:06:45.180Z,565.1
2023-08-04T00:07:46.938Z,564.9
2023-08-04T00:08:48.708Z,565.2
2023-08-04T00:09:50.398Z,565
2023-08-04T00:10:52.116Z,564.9
2023-08-04T00:11:53.829Z,564.9
2023-08-04T00:12:55.621Z,564.9
2023-08-04T00:13:57.286Z,565
2023-08-04T00:14:59.044Z,564.8
2023-08-04T00:16:00.841Z,565
2023-08-04T00:17:02.661Z,565.1
2023-08-04T00:18:04.686Z,564.7
2023-08-04T00:19:06.536Z,565.1
2023-08-04T00:20:08.490Z,565.3
2023-08-04T00:21:10.247Z,565
2023-08-04T00:22:11.968Z,565
2023-08-04T00:23:13.747Z,565
2023-08-04T00:24:15.484Z,565.1
2023-08-04T00:25:17.217Z,564.9
2023-08-04T00:26:18.958Z,564.8
2023-08-04T00:27:20.789Z,565.1
2023-08-04T00:28:22.521Z,565
2023-08-04T00:29:24.309Z,564.8
2023-08-04T00:30:26.094Z,565
2023-08-04T00:31:27.920Z,564.7
2023-08-04T00:32:30.308Z,565.1
2023-08-04T00:33:32.227Z,565
2023-08-04T00:34:33.929Z,565.2
2023-08-04T00:35:35.692Z,565.1
2023-08-04T00:36:37.487Z,565.1
2023-08-04T00:37:39.312Z,565
2023-08-04T00:38:41.074Z,565.2
2023-08-04T00:39:42.836Z,565.1
2023-08-04T00:40:44.566Z,565
2023-08-04T00:41:47.528Z,564.9
2023-08-04T00:42:49.596Z,565.3
2023-08-04T00:43:51.494Z,565.2
2023-08-04T00:44:53.339Z,564.9
2023-08-04T00:45:55.399Z,565
2023-08-04T00:46:57.267Z,564.8
2023-08-04T00:48:02.272Z,564.9
2023-08-04T00:49:04.052Z,565.1
2023-08-04T00:50:05.898Z,565.2
2023-08-04T00:51:07.695Z,564.5
2023-08-04T00:52:09.447Z,564.9
2023-08-04T00:53:11.145Z,565.1
2023-08-04T00:54:12.819Z,564.7
2023-08-04T00:55:14.542Z,564.8
2023-08-04T00:56:16.458Z,564.5
2023-08-04T00:57:18.177Z,564.3
2023-08-04T00:58:19.993Z,564.4
2023-08-04T00:59:21.688Z,564.2
2023-08-04T01:00:23.504Z,564.2
2023-08-04T01:01:25.592Z,564.6
2023-08-04T01:02:27.737Z,564.6
2023-08-04T01:03:33.384Z,564.3
2023-08-04T01:04:35.206Z,564.6
2023-08-04T01:05:36.890Z,564.8
2023-08-04T01:06:38.620Z,565
2023-08-04T01:07:40.393Z,564.7
2023-08-04T01:08:42.114Z,564.7
2023-08-04T01:09:43.816Z,564.8
2023-08-04T01:10:45.549Z,564.9
2023-08-04T01:11:48.518Z,564.5
2023-08-04T01:12:50.481Z,564.4
2023-08-04T01:13:52.173Z,565
2023-08-04T01:14:57.074Z,565
2023-08-04T01:15:59.072Z,565.3
2023-08-04T01:17:01.023Z,565.1
2023-08-04T01:18:02.957Z,565
2023-08-04T01:19:04.814Z,565.4
2023-08-04T01:20:06.709Z,565.4
2023-08-04T01:21:08.435Z,565.4
2023-08-04T01:22:10.262Z,565.5
2023-08-04T01:23:12.037Z,565.6
2023-08-04T01:24:14.102Z,565.3
2023-08-04T01:25:15.895Z,565.6
2023-08-04T01:26:17.614Z,566
2023-08-04T01:27:19.401Z,565.7
2023-08-04T01:28:21.241Z,565.2
2023-08-04T01:29:22.998Z,565.1
2023-08-04T01:30:24.734Z,565.2
2023-08-04T01:31:26.441Z,565.5
2023-08-04T01:32:28.324Z,565.1
2023-08-04T01:33:30.135Z,565.7
2023-08-04T01:34:31.870Z,565
2023-08-04T01:35:33.679Z,564.9
2023-08-04T01:36:35.367Z,564.7
2023-08-04T01:37:37.685Z,564.2
2023-08-04T01:38:39.676Z,564.5
2023-08-04T01:39:41.371Z,564.3
2023-08-04T01:40:43.111Z,564
2023-08-04T01:41:46.675Z,564
2023-08-04T01:42:48.683Z,564.6
2023-08-04T01:43:50.378Z,563.8
2023-08-04T01:44:52.086Z,564.3
2023-08-04T01:45:56.893Z,563.8
2023-08-04T01:46:58.609Z,563.6
2023-08-04T01:48:00.632Z,563.4
2023-08-04T01:49:02.437Z,563.6
2023-08-04T01:50:04.404Z,563.6
2023-08-04T01:51:06.179Z,563.8
2023-08-04T01:52:08.001Z,563.5
2023-08-04T01:53:09.725Z,563.6
2023-08-04T01:54:11.468Z,563.6
2023-08-04T01:55:13.186Z,563.5
2023-08-04T01:56:14.893Z,563.2
2023-08-04T01:57:16.707Z,563.3
2023-08-04T01:58:18.432Z,563.5
2023-08-04T01:59:20.118Z,563.4
2023-08-04T02:00:21.865Z,563.4
2023-08-04T02:01:24.037Z,563.5
2023-08-04T02:02:25.990Z,563.4
2023-08-04T02:03:28.109Z,563.1
2023-08-04T02:04:29.845Z,563.2
2023-08-04T02:05:31.590Z,563.3
2023-08-04T02:06:33.279Z,563.1
2023-08-04T02:07:35.061Z,562.8
2023-08-04T02:08:36.786Z,563.2
2023-08-04T02:09:38.477Z,562.7
2023-08-04T02:10:40.203Z,562.8
2023-08-04T02:11:41.909Z,563.2
2023-08-04T02:12:43.853Z,563.1
2023-08-04T02:13:45.564Z,562.9
2023-08-04T02:14:47.304Z,563.3
2023-08-04T02:15:49.650Z,562.9
2023-08-04T02:16:51.361Z,562.5
2023-08-04T02:17:53.322Z,562.6
2023-08-04T02:18:55.068Z,562.8
2023-08-04T02:19:56.812Z,562.9
2023-08-04T02:20:58.535Z,562.7
2023-08-04T02:22:00.218Z,562.4
2023-08-04T02:23:01.921Z,562.2
2023-08-04T02:24:03.721Z,562.2
2023-08-04T02:25:05.488Z,562.1
2023-08-04T02:26:07.163Z,561.8
2023-08-04T02:27:08.896Z,561.9
2023-08-04T02:28:10.668Z,561.5
2023-08-04T02:29:12.410Z,561.3
2023-08-04T02:30:14.235Z,561
2023-08-04T02:31:16.266Z,561
2023-08-04T02:32:18.069Z,560.9
2023-08-04T02:33:19.802Z,561.3
2023-08-04T02:34:21.929Z,561
2023-08-04T02:35:23.856Z,561.3
2023-08-04T02:36:25.549Z,561.4
2023-08-04T02:37:30.396Z,561.3
2023-08-04T02:38:32.109Z,561.1
2023-08-04T02:39:33.809Z,561
2023-08-04T02:40:40.891Z,561
2023-08-04T02:41:42.599Z,560.8
2023-08-04T02:42:44.467Z,561
2023-08-04T02:43:46.182Z,560.3
2023-08-04T02:44:47.952Z,560.8
2023-08-04T02:45:49.637Z,560.7
2023-08-04T02:46:51.504Z,560.7
2023-08-04T02:47:53.443Z,560.8
2023-08-04T02:48:55.231Z,560.9
2023-08-04T02:49:56.983Z,560.9
2023-08-04T02:50:58.763Z,560.7
2023-08-04T02:52:00.565Z,560.9
2023-08-04T02:53:02.240Z,560.9
2023-08-04T02:54:04.123Z,560.6
2023-08-04T02:55:05.846Z,560.8
2023-08-04T02:56:07.610Z,560.6
2023-08-04T02:57:09.269Z,560.7
2023-08-04T02:58:10.949Z,561
2023-08-04T02:59:12.698Z,560.5
2023-08-04T03:00:14.408Z,560.8
2023-08-04T03:01:16.611Z,560.6
2023-08-04T03:02:18.725Z,560.4
2023-08-04T03:03:20.939Z,560
2023-08-04T03:04:22.744Z,560.2
2023-08-04T03:05:24.620Z,560.2
2023-08-04T03:06:26.312Z,559.8
2023-08-04T03:07:34.027Z,560.1
2023-08-04T03:08:35.906Z,559.9
2023-08-04T03:09:37.649Z,559.7
2023-08-04T03:10:39.347Z,560.2
2023-08-04T03:11:41.077Z,560
2023-08-04T03:12:42.847Z,560
2023-08-04T03:13:44.600Z,559.9
2023-08-04T03:14:46.324Z,560.4
2023-08-04T03:15:48.011Z,560.7
2023-08-04T03:16:49.958Z,560.5
2023-08-04T03:17:52.019Z,560.6
2023-08-04T03:18:53.715Z,560.6
2023-08-04T03:19:55.437Z,560.6
2023-08-04T03:20:57.170Z,560.5
2023-08-04T03:21:58.947Z,560.8
2023-08-04T03:23:00.688Z,560.9
2023-08-04T03:24:02.392Z,560.4
2023-08-04T03:25:04.112Z,560.7
2023-08-04T03:26:05.878Z,560.9
2023-08-04T03:27:07.655Z,560.8
2023-08-04T03:28:09.358Z,560.6
2023-08-04T03:29:11.085Z,560.4
2023-08-04T03:30:12.889Z,560.6
2023-08-04T03:31:14.728Z,560.5
2023-08-04T03:32:16.572Z,560.7
2023-08-04T03:33:18.305Z,560.6
2023-08-04T03:34:20.006Z,560.6
2023-08-04T03:35:21.774Z,560.6
2023-08-04T03:36:23.551Z,560.3
2023-08-04T03:37:25.271Z,560.7
2023-08-04T03:38:27.264Z,560.3
2023-08-04T03:39:31.885Z,560.2
2023-08-04T03:40:33.628Z,560.5
2023-08-04T03:41:35.388Z,560.8
2023-08-04T03:42:37.102Z,560.7
2023-08-04T03:43:38.822Z,560.7
2023-08-04T03:44:40.517Z,560.9
2023-08-04T03:45:42.231Z,560.9
2023-08-04T03:46:44.282Z,561.1
2023-08-04T03:47:46.501Z,560.9
2023-08-04T03:48:48.361Z,560.6
2023-08-04T03:49:50.052Z,560.6
2023-08-04T03:50:51.767Z,560.8
2023-08-04T03:51:53.591Z,560.4
2023-08-04T03:52:58.063Z,560.2
2023-08-04T03:53:59.888Z,560.2
2023-08-04T03:55:01.724Z,560.2
2023-08-04T03:56:03.740Z,560.4
2023-08-04T03:57:05.550Z,560.2
2023-08-04T03:58:07.240Z,560
2023-08-04T03:59:09.020Z,559.9
2023-08-04T04:00:10.765Z,560
2023-08-04T04:01:12.534Z,560
2023-08-04T04:02:14.743Z,559.9
2023-08-04T04:03:16.863Z,559.8
2023-08-04T04:04:18.789Z,559.8
2023-08-04T04:05:20.572Z,560
2023-08-04T04:06:22.266Z,560
2023-08-04T04:07:23.990Z,559.8
2023-08-04T04:08:25.707Z,560
2023-08-04T04:09:27.503Z,560
2023-08-04T04:10:29.220Z,559.7
2023-08-04T04:11:30.933Z,559.9
2023-08-04T04:12:32.616Z,559.9
2023-08-04T04:13:34.333Z,559.9
2023-08-04T04:14:36.065Z,559.9
2023-08-04T04:15:37.747Z,559.8
2023-08-04T04:16:39.907Z,560.1
2023-08-04T04:17:42.071Z,559.7
2023-08-04T04:18:43.852Z,559.8
2023-08-04T04:19:45.595Z,559.8
2023-08-04T04:20:47.376Z,560.2
2023-08-04T04:21:50.268Z,560.1
2023-08-04T04:22:51.982Z,560.2
2023-08-04T04:23:53.748Z,560
2023-08-04T04:24:55.674Z,560.4
2023-08-04T04:25:57.391Z,560
2023-08-04T04:26:59.126Z,559.9
2023-08-04T04:28:00.927Z,559.9
2023-08-04T04:29:02.817Z,559.6
2023-08-04T04:30:04.534Z,559.7
2023-08-04T04:31:06.793Z,560
2023-08-04T04:32:08.576Z,560
2023-08-04T04:33:11.320Z,560
2023-08-04T04:34:16.079Z,559.6
2023-08-04T04:35:17.970Z,559.7
2023-08-04T04:36:19.653Z,560.2
2023-08-04T04:37:21.405Z,559.8
2023-08-04T04:38:23.151Z,559.9
2023-08-04T04:39:27.408Z,560
2023-08-04T04:40:29.141Z,559.7
2023-08-04T04:41:30.953Z,559.7
2023-08-04T04:42:32.628Z,559.6
2023-08-04T04:43:34.370Z,559.4
2023-08-04T04:44:36.257Z,559.2
2023-08-04T04:45:38.030Z,559.2
2023-08-04T04:46:40.047Z,558.8
2023-08-04T04:47:42.069Z,559.2
2023-08-04T04:48:43.820Z,559
2023-08-04T04:49:45.601Z,559.2
2023-08-04T04:50:47.296Z,559.1
2023-08-04T04:51:50.895Z,559.2
2023-08-04T04:52:53.000Z,559.2
2023-08-04T04:53:54.770Z,559
2023-08-04T04:54:56.463Z,558.9
2023-08-04T04:55:58.136Z,558.9
2023-08-04T04:56:59.859Z,558.9
2023-08-04T04:58:01.532Z,558.8
2023-08-04T04:59:03.272Z,558.9
2023-08-04T05:00:05.172Z,558.7
2023-08-04T05:01:06.910Z,559.3
2023-08-04T05:02:08.830Z,559
2023-08-04T05:03:10.779Z,558.9
2023-08-04T05:04:12.712Z,558.7
2023-08-04T05:05:14.607Z,558.6
2023-08-04T05:06:16.338Z,558.4
2023-08-04T05:07:18.070Z,558.4
2023-08-04T05:08:19.833Z,558.3
2023-08-04T05:09:21.608Z,558.5
2023-08-04T05:10:23.326Z,558
2023-08-04T05:11:25.122Z,558
2023-08-04T05:12:26.826Z,558.1
2023-08-04T05:13:28.519Z,558.1
2023-08-04T05:14:30.198Z,557.9
2023-08-04T05:15:31.923Z,558.1
2023-08-04T05:16:33.983Z,558.1
2023-08-04T05:17:35.811Z,557.8
2023-08-04T05:18:37.680Z,557.8
2023-08-04T05:19:39.442Z,557.6
2023-08-04T05:20:41.157Z,557.6
2023-08-04T05:21:42.919Z,557.3
2023-08-04T05:22:44.611Z,557.8
2023-08-04T05:23:46.373Z,557.8
2023-08-04T05:25:12.152Z,557.7
2023-08-04T05:26:14.236Z,557.7
2023-08-04T05:27:16.003Z,557.6
2023-08-04T05:28:17.796Z,557.7
2023-08-04T05:29:19.518Z,558.1
2023-08-04T05:30:21.221Z,558.2
2023-08-04T05:31:23.257Z,558.2
2023-08-04T05:32:25.050Z,558.3
2023-08-04T05:33:27.199Z,558.7
2023-08-04T05:34:29.173Z,558.4
2023-08-04T05:35:30.915Z,558.5
2023-08-04T05:36:32.690Z,558.6
2023-08-04T05:37:34.420Z,558.5
2023-08-04T05:38:36.278Z,558.4
2023-08-04T05:39:38.071Z,558.6
2023-08-04T05:40:40.651Z,558.1
2023-08-04T05:41:42.368Z,558.2
2023-08-04T05:42:44.170Z,558.1
2023-08-04T05:43:45.868Z,558.1
2023-08-04T05:44:47.525Z,557.8
2023-08-04T05:45:50.562Z,558
2023-08-04T05:46:52.369Z,557.9
2023-08-04T05:47:54.303Z,557.8
2023-08-04T05:48:56.056Z,557.9
2023-08-04T05:49:57.824Z,558.1
2023-08-04T05:51:00.257Z,557.9
2023-08-04T05:52:02.073Z,558.4
2023-08-04T05:53:03.938Z,558
2023-08-04T05:54:05.719Z,557.9
2023-08-04T05:55:07.426Z,558.2
2023-08-04T05:56:09.221Z,558
2023-08-04T05:57:10.937Z,558.1
2023-08-04T05:58:12.682Z,558.1
2023-08-04T05:59:14.383Z,557.8
2023-08-04T06:00:16.128Z,558.1
2023-08-04T06:01:18.183Z,557.8
2023-08-04T06:02:20.024Z,557.9
2023-08-04T06:03:21.850Z,557.9
2023-08-04T06:04:23.573Z,557.8
2023-08-04T06:05:25.328Z,557.9
2023-08-04T06:06:27.335Z,557.8
2023-08-04T06:07:29.060Z,558.4
2023-08-04T06:08:30.777Z,558
2023-08-04T06:09:32.452Z,558
2023-08-04T06:10:34.317Z,558.1
2023-08-04T06:11:36.079Z,558
2023-08-04T06:12:37.774Z,557.9
2023-08-04T06:13:39.515Z,557.8
2023-08-04T06:14:41.220Z,557.7
2023-08-04T06:15:43.430Z,558
2023-08-04T06:16:45.157Z,557.9
2023-08-04T06:17:47.077Z,557.6
2023-08-04T06:18:48.796Z,557.7
2023-08-04T06:19:50.522Z,558.3
2023-08-04T06:20:55.165Z,557.9
2023-08-04T06:21:56.918Z,557.5
2023-08-04T06:22:58.841Z,558.2
2023-08-04T06:24:00.593Z,558
2023-08-04T06:25:02.448Z,558.2
2023-08-04T06:26:04.142Z,558.3
2023-08-04T06:27:05.975Z,558.2
2023-08-04T06:28:07.846Z,558.5
2023-08-04T06:29:09.707Z,558
2023-08-04T06:30:11.458Z,557.8
2023-08-04T06:31:13.364Z,558.4
2023-08-04T06:32:17.702Z,558.2
2023-08-04T06:33:19.785Z,558.1
2023-08-04T06:34:21.661Z,558.3
2023-08-04T06:35:23.395Z,557.9
2023-08-04T06:36:25.184Z,557.9
2023-08-04T06:37:26.862Z,557.7
2023-08-04T06:38:28.581Z,558
2023-08-04T06:39:30.335Z,557.9
2023-08-04T06:40:32.050Z,558.5
2023-08-04T06:41:33.837Z,558.4
2023-08-04T06:42:35.686Z,558.6
2023-08-04T06:43:37.460Z,558.4
2023-08-04T06:44:39.296Z,558.3
2023-08-04T06:45:41.260Z,558.6
2023-08-04T06:46:43.041Z,558.5
2023-08-04T06:47:45.285Z,558.6
2023-08-04T06:48:47.152Z,558.6
2023-08-04T06:49:48.867Z,558.3
2023-08-04T06:50:50.560Z,558.5
2023-08-04T06:51:52.373Z,559
2023-08-04T06:52:54.175Z,558.9
2023-08-04T06:53:55.902Z,559.3
2023-08-04T06:54:57.747Z,559
2023-08-04T06:55:59.477Z,558.9
2023-08-04T06:57:01.244Z,558.9
2023-08-04T06:58:03.065Z,559.1
2023-08-04T06:59:07.785Z,559.3
2023-08-04T07:00:09.747Z,559.3
2023-08-04T07:01:11.734Z,559.4
2023-08-04T07:02:13.892Z,559.5
2023-08-04T07:03:16.353Z,559.4
2023-08-04T07:04:18.245Z,559.6
2023-08-04T07:05:19.943Z,559.6
2023-08-04T07:06:21.749Z,559.9
2023-08-04T07:07:23.701Z,559.8
2023-08-04T07:08:25.374Z,559.7
2023-08-04T07:09:27.247Z,559.6
2023-08-04T07:10:28.979Z,559.8
2023-08-04T07:11:30.760Z,559.7
2023-08-04T07:12:32.478Z,560
2023-08-04T07:13:34.304Z,560.2
2023-08-04T07:14:36.012Z,560.3
2023-08-04T07:15:38.067Z,560.2
2023-08-04T07:16:39.932Z,560.1
2023-08-04T07:17:41.753Z,560.6
2023-08-04T07:18:43.494Z,560.5
2023-08-04T07:19:45.291Z,560.3
2023-08-04T07:20:47.044Z,560.2
2023-08-04T07:21:50.212Z,560.4
2023-08-04T07:22:52.154Z,560.2
2023-08-04T07:23:53.862Z,560.2
2023-08-04T07:24:55.646Z,560.1
2023-08-04T07:25:57.533Z,560.2
2023-08-04T07:26:59.318Z,560.3
2023-08-04T07:28:01.109Z,560
2023-08-04T07:29:02.904Z,560.7
2023-08-04T07:30:04.765Z,560.1
2023-08-04T07:31:06.971Z,560.3
2023-08-04T07:32:08.739Z,560.2
2023-08-04T07:33:10.835Z,560.4
2023-08-04T07:34:12.696Z,560.4
2023-08-04T07:35:14.455Z,560.4
2023-08-04T07:36:16.153Z,560.6
2023-08-04T07:37:17.936Z,560.6
2023-08-04T07:38:19.772Z,560.5
2023-08-04T07:39:21.542Z,560.2
2023-08-04T07:40:23.295Z,560.5
2023-08-04T07:41:25.019Z,560.3
2023-08-04T07:42:26.749Z,560.4
2023-08-04T07:43:28.500Z,560.6
2023-08-04T07:44:30.263Z,560.6
2023-08-04T07:45:31.962Z,561
2023-08-04T07:46:34.008Z,560.8
2023-08-04T07:47:36.128Z,561
2023-08-04T07:48:37.936Z,560.9
2023-08-04T07:49:39.641Z,561
2023-08-04T07:50:41.363Z,560.9
2023-08-04T07:51:43.118Z,561.1
2023-08-04T07:52:44.821Z,561.5
2023-08-04T07:53:46.662Z,561.1
2023-08-04T07:54:48.441Z,561.3
2023-08-04T07:55:50.189Z,561.2
2023-08-04T07:56:51.924Z,561
2023-08-04T07:57:53.702Z,561.1
2023-08-04T07:58:55.476Z,561
2023-08-04T07:59:57.288Z,560.8
2023-08-04T08:00:59.432Z,561.1
2023-08-04T08:02:01.322Z,561
2023-08-04T08:03:03.646Z,561.1
2023-08-04T08:04:06.969Z,561.1
2023-08-04T08:05:08.789Z,561.1
2023-08-04T08:06:11.082Z,561
2023-08-04T08:07:12.966Z,561.2
2023-08-04T08:08:14.786Z,561.1
2023-08-04T08:09:16.513Z,561.3
2023-08-04T08:10:18.326Z,561.3
2023-08-04T08:11:20.079Z,561.1
2023-08-04T08:12:21.846Z,561.5
2023-08-04T08:13:23.588Z,561.4
2023-08-04T08:14:25.392Z,562
2023-08-04T08:15:27.190Z,562.3
2023-08-04T08:16:29.239Z,562.2
2023-08-04T08:17:34.429Z,562.3
2023-08-04T08:18:36.253Z,562.4
2023-08-04T08:19:37.943Z,562.3
2023-08-04T08:20:39.664Z,562.2
2023-08-04T08:21:41.465Z,562.1
2023-08-04T08:22:43.210Z,561.8
2023-08-04T08:23:44.979Z,562
2023-08-04T08:24:46.973Z,561.7
2023-08-04T08:25:48.916Z,562.1
2023-08-04T08:26:50.627Z,562.4
2023-08-04T08:27:52.484Z,562.2
2023-08-04T08:28:54.180Z,562.2
2023-08-04T08:29:55.928Z,562.2
2023-08-04T08:30:58.035Z,562.5
2023-08-04T08:31:59.747Z,562.6
2023-08-04T08:33:01.964Z,562.4
2023-08-04T08:34:03.747Z,562.5
2023-08-04T08:35:05.513Z,562.6
2023-08-04T08:36:07.365Z,562.8
2023-08-04T08:37:09.036Z,562.9
2023-08-04T08:38:10.757Z,562.3
2023-08-04T08:39:12.456Z,562.2
2023-08-04T08:40:14.190Z,562.3
2023-08-04T08:41:15.917Z,562.2
2023-08-04T08:42:17.669Z,562.3
2023-08-04T08:43:19.458Z,562.1
2023-08-04T08:44:21.176Z,562.4
2023-08-04T08:45:23.857Z,562.4
2023-08-04T08:46:25.758Z,562.3
2023-08-04T08:47:27.778Z,562.9
2023-08-04T08:48:29.669Z,562.6
2023-08-04T08:49:31.344Z,563
2023-08-04T08:50:33.087Z,562.8
2023-08-04T08:51:34.915Z,563
2023-08-04T08:52:39.518Z,563
2023-08-04T08:53:41.232Z,563.6
2023-08-04T08:54:43.010Z,563.5
2023-08-04T08:55:44.858Z,563.8
2023-08-04T08:56:46.553Z,563.4
2023-08-04T08:57:48.232Z,563.4
2023-08-04T08:58:50.069Z,563.4
2023-08-04T08:59:51.779Z,563.5
2023-08-04T09:00:53.591Z,563.8
2023-08-04T09:01:55.575Z,564
2023-08-04T09:02:57.415Z,564.2
2023-08-04T09:03:59.365Z,564.2
2023-08-04T09:05:01.455Z,564.4
2023-08-04T09:06:03.202Z,564.4
2023-08-04T09:07:05.008Z,564.4
2023-08-04T09:08:06.784Z,564.2
2023-08-04T09:09:08.464Z,563.8
2023-08-04T09:10:10.188Z,563.9
2023-08-04T09:11:12.046Z,564.3
2023-08-04T09:12:13.750Z,564.6
2023-08-04T09:13:15.646Z,564.1
2023-08-04T09:14:17.764Z,564.5
2023-08-04T09:15:19.713Z,564.3
2023-08-04T09:16:22.109Z,564.8
2023-08-04T09:17:24.128Z,564.7
2023-08-04T09:18:25.915Z,564.8
2023-08-04T09:19:27.668Z,565
2023-08-04T09:20:29.440Z,565
2023-08-04T09:21:31.157Z,564.9
2023-08-04T09:22:32.886Z,565.3
2023-08-04T09:23:37.001Z,565.4
2023-08-04T09:24:38.692Z,565.1
2023-08-04T09:25:40.352Z,565.2
2023-08-04T09:26:42.199Z,565.6
2023-08-04T09:27:43.873Z,565.7
2023-08-04T09:28:45.604Z,565.9
2023-08-04T09:29:47.305Z,565.7
2023-08-04T09:30:49.078Z,565.7
2023-08-04T09:31:52.401Z,565.8
2023-08-04T09:32:54.702Z,565.9
2023-08-04T09:33:56.535Z,565.8
2023-08-04T09:34:58.284Z,566.2
2023-08-04T09:36:00.121Z,566.3
2023-08-04T09:37:01.849Z,566.2
2023-08-04T09:38:03.654Z,566.9
2023-08-04T09:39:05.587Z,567
2023-08-04T09:40:07.387Z,566.7
2023-08-04T09:41:09.224Z,566.6
2023-08-04T09:42:11.099Z,566.5
2023-08-04T09:43:12.929Z,566.3
2023-08-04T09:44:14.719Z,566.2
2023-08-04T09:45:17.292Z,566.3
2023-08-04T09:46:20.362Z,566.3
2023-08-04T09:47:22.230Z,566.3
2023-08-04T09:48:23.946Z,567
2023-08-04T09:49:25.794Z,566.9
2023-08-04T09:50:27.510Z,566.9
2023-08-04T09:51:29.324Z,566.6
2023-08-04T09:52:31.212Z,567.3
2023-08-04T09:53:33.076Z,567
2023-08-04T09:54:34.768Z,567.4
2023-08-04T09:55:36.887Z,567.2
2023-08-04T09:56:41.143Z,566.8
2023-08-04T09:57:42.928Z,567.2
2023-08-04T09:58:44.893Z,567.6
2023-08-04T09:59:46.672Z,567.2
2023-08-04T10:00:48.406Z,567.4
2023-08-04T10:01:54.911Z,567.4
2023-08-04T10:02:57.643Z,567.1
2023-08-04T10:04:00.222Z,567.9
2023-08-04T10:05:02.357Z,567.7
2023-08-04T10:06:06.709Z,567.8
2023-08-04T10:07:08.504Z,568.1
2023-08-04T10:08:10.481Z,568
2023-08-04T10:09:12.241Z,567.7
2023-08-04T10:10:14.072Z,567.9
2023-08-04T10:11:15.779Z,567.7
2023-08-04T10:12:17.539Z,568.2
2023-08-04T10:13:19.290Z,568.2
2023-08-04T10:14:21.040Z,568.3
2023-08-04T10:15:24.047Z,568.1
2023-08-04T10:16:26.554Z,568.1
2023-08-04T10:17:29.200Z,567.9
2023-08-04T10:18:31.228Z,568
2023-08-04T10:19:33.110Z,568.3
2023-08-04T10:20:34.977Z,568.3
2023-08-04T10:21:43.848Z,568.2
2023-08-04T10:22:45.967Z,568.3
2023-08-04T10:23:47.701Z,568.3
2023-08-04T10:24:50.069Z,568.8
2023-08-04T10:25:51.982Z,568.4
2023-08-04T10:26:53.742Z,568.2
2023-08-04T10:27:55.548Z,568.3
2023-08-04T10:29:00.453Z,568.3
2023-08-04T10:30:02.383Z,568.4
2023-08-04T10:31:04.364Z,568.7
2023-08-04T10:32:06.766Z,568.6
2023-08-04T10:33:08.730Z,568.3
2023-08-04T10:34:10.523Z,568.4
2023-08-04T10:35:12.580Z,569
2023-08-04T10:36:14.382Z,568.7
2023-08-04T10:37:16.234Z,568.7
2023-08-04T10:38:18.487Z,568.1
2023-08-04T10:39:20.307Z,568.5
2023-08-04T10:40:22.135Z,568.4
2023-08-04T10:41:23.897Z,568.6
2023-08-04T10:42:25.650Z,568.6
2023-08-04T10:43:27.509Z,568.8
2023-08-04T10:44:29.429Z,568.8
2023-08-04T10:45:31.170Z,569.4
2023-08-04T10:46:36.012Z,569.3
2023-08-04T10:48:08.696Z,569.2
2023-08-04T10:49:13.711Z,569.5
2023-08-04T10:50:16.287Z,569.3
2023-08-04T10:51:18.257Z,570.2
2023-08-04T10:52:22.938Z,570.1
2023-08-04T10:53:27.422Z,569.8
2023-08-04T10:54:29.201Z,569.7
2023-08-04T10:55:31.057Z,569.7
2023-08-04T10:56:32.912Z,570.4
2023-08-04T10:57:34.819Z,570.3
2023-08-04T10:58:36.873Z,570.5
2023-08-04T10:59:38.629Z,570.5
2023-08-04T11:00:40.609Z,570.4
2023-08-04T11:01:42.627Z,570.1
2023-08-04T11:02:44.798Z,570.7
2023-08-04T11:03:46.727Z,571.2
2023-08-04T11:04:49.108Z,570.8
2023-08-04T11:05:51.537Z,570.7
2023-08-04T11:06:53.354Z,570.8
2023-08-04T11:07:55.829Z,570.7
2023-08-04T11:08:57.677Z,571.1
2023-08-04T11:09:59.417Z,571
2023-08-04T11:11:01.497Z,570.9
2023-08-04T11:12:03.226Z,571.3
2023-08-04T11:13:04.994Z,571.4
2023-08-04T11:14:06.940Z,571.6
2023-08-04T11:15:08.756Z,571.4
2023-08-04T11:16:10.564Z,571.3
2023-08-04T11:17:12.931Z,571.7
2023-08-04T11:18:15.161Z,571.3
2023-08-04T11:19:16.958Z,571.7
2023-08-04T11:20:34.605Z,571.9
2023-08-04T11:21:36.529Z,571.4
2023-08-04T11:22:38.522Z,571.5
2023-08-04T11:23:40.355Z,571.6
2023-08-04T11:24:42.176Z,571.4
2023-08-04T11:25:44.020Z,571.5
2023-08-04T11:26:45.787Z,571.5
2023-08-04T11:27:47.600Z,571.6
2023-08-04T11:28:49.741Z,571.8
2023-08-04T11:29:51.595Z,571.7
2023-08-04T11:30:53.549Z,571.9
2023-08-04T11:31:58.318Z,571.7
2023-08-04T11:33:00.398Z,571.9
2023-08-04T11:34:02.289Z,571.9
2023-08-04T11:35:04.120Z,572.5
2023-08-04T11:36:06.342Z,572
2023-08-04T11:37:08.283Z,572.6
2023-08-04T11:38:10.572Z,572.2
2023-08-04T11:39:12.552Z,572.2
2023-08-04T11:40:14.299Z,572
2023-08-04T11:41:16.723Z,572.7
2023-08-04T11:42:18.674Z,572.8
2023-08-04T11:43:20.496Z,573.4
2023-08-04T11:44:22.417Z,572.8
2023-08-04T11:45:24.197Z,573.5
2023-08-04T11:46:26.305Z,573.4
2023-08-04T11:47:28.690Z,573.3
2023-08-04T11:48:31.024Z,573.3
2023-08-04T11:49:33.009Z,573.6
2023-08-04T11:50:34.816Z,573.5
2023-08-04T11:51:36.669Z,573.6
2023-08-04T11:52:38.741Z,573.6
2023-08-04T11:53:40.491Z,573.5
2023-08-04T11:54:42.261Z,573.3
2023-08-04T11:55:44.268Z,573.5
2023-08-04T11:56:46.423Z,573.5
2023-08-04T11:57:48.262Z,574
2023-08-04T11:58:50.152Z,573.6
2023-08-04T11:59:51.999Z,574
2023-08-04T12:00:53.745Z,574.3
2023-08-04T12:02:12.301Z,574.6
2023-08-04T12:03:15.493Z,574.2
2023-08-04T12:04:18.682Z,574.2
2023-08-04T12:05:21.561Z,574.1
2023-08-04T12:06:23.770Z,574.1
2023-08-04T12:07:25.665Z,574.6
2023-08-04T12:08:27.429Z,574.9
2023-08-04T12:09:32.141Z,574.8
2023-08-04T12:10:34.172Z,575.2
2023-08-04T12:11:35.988Z,575
2023-08-04T12:12:37.763Z,575.4
2023-08-04T12:13:39.708Z,575.3
2023-08-04T12:15:02.776Z,575
2023-08-04T12:16:05.020Z,575.4
2023-08-04T12:17:07.585Z,575.6
2023-08-04T12:18:09.769Z,575.5
2023-08-04T12:19:11.576Z,575.4
2023-08-04T12:20:16.614Z,575.6
2023-08-04T12:21:18.365Z,576.1
2023-08-04T12:22:22.529Z,576.1
2023-08-04T12:23:24.945Z,576
2023-08-04T12:24:26.952Z,576.2
2023-08-04T12:25:28.777Z,575.8
2023-08-04T12:26:30.507Z,576.1
2023-08-04T12:27:32.259Z,576.3
2023-08-04T12:28:34.143Z,576.3
2023-08-04T12:29:35.944Z,576.3
2023-08-04T12:30:38.004Z,576.4
2023-08-04T12:31:40.336Z,576.5
2023-08-04T12:32:42.913Z,576.7
2023-08-04T12:33:44.925Z,576.8
2023-08-04T12:34:46.873Z,577.6
2023-08-04T12:35:48.590Z,577.2
2023-08-04T12:36:50.350Z,578
2023-08-04T12:37:52.162Z,577.7
2023-08-04T12:38:53.939Z,577.8
2023-08-04T12:39:58.363Z,577.6
2023-08-04T12:41:00.447Z,577.5
2023-08-04T12:42:02.377Z,578
2023-08-04T12:43:04.202Z,577.6
2023-08-04T12:44:06.207Z,577.6
2023-08-04T12:45:08.142Z,577.5
2023-08-04T12:46:10.019Z,578
2023-08-04T12:47:12.414Z,578
2023-08-04T12:48:14.510Z,578
2023-08-04T12:49:16.578Z,577.9
2023-08-04T12:50:21.720Z,578
2023-08-04T12:51:23.458Z,578
2023-08-04T12:52:25.185Z,577.6
2023-08-04T12:53:26.889Z,578.1
2023-08-04T12:54:28.617Z,578
2023-08-04T12:55:30.481Z,578.6
2023-08-04T12:56:32.184Z,578.7
2023-08-04T12:57:33.895Z,578.8
2023-08-04T12:58:35.864Z,579.1
2023-08-04T12:59:37.653Z,579.1
2023-08-04T13:00:39.456Z,578.9
2023-08-04T13:01:41.906Z,578.7
2023-08-04T13:02:44.489Z,578.7
2023-08-04T13:03:46.885Z,578.9
2023-08-04T13:04:49.468Z,579.1
2023-08-04T13:05:51.312Z,578.7
2023-08-04T13:06:53.023Z,579
2023-08-04T13:07:54.881Z,579.2
2023-08-04T13:08:56.727Z,579.3
2023-08-04T13:09:58.586Z,579.6
2023-08-04T13:11:03.848Z,579.4
2023-08-04T13:12:05.675Z,579.2
2023-08-04T13:13:07.505Z,579.2
2023-08-04T13:14:09.402Z,579.4
2023-08-04T13:15:11.691Z,579.4
2023-08-04T13:16:13.876Z,579.6
2023-08-04T13:17:19.049Z,579.5
2023-08-04T13:18:20.819Z,579.7
2023-08-04T13:19:22.593Z,579.9
2023-08-04T13:20:24.536Z,580.1
2023-08-04T13:21:26.607Z,580
2023-08-04T13:22:28.406Z,580.4
2023-08-04T13:23:30.137Z,580.6
2023-08-04T13:24:31.927Z,580.6
2023-08-04T13:25:33.672Z,580.4
2023-08-04T13:26:35.508Z,580.5
2023-08-04T13:27:40.185Z,580.7